Airfield :
LOGIN :

Register | Disclaimer

   EN    FR    IT 

 










Legend :    VFR   Marginal VFR   IFR   Intensive IFR   Very Intensive IFR
Visi :
Ceiling :
>= 8 km
>= 3000ft
5 to 8 km
1000 to 3000 ft
1500m to 5 km
500 to 1000 ft
800 to 1500m
200 to 500 ft
< 800m
< 200 ft
Symbols :   Thunderstorms  Fog  Heavy snow  Heavy precipitations  Wind > 20 kt
SIGMETs :     Misc.  Thunderstorms  Icing  Turbulence  Mountain Waves  Volcanic Ashes






- Airport Elevation : 72 ft
- IATA code : UDE


EHVK - Volkel Airbase

CURRENT METAR :
  • 161225Z AUTO 20006KT 140V230 9999 OVC054 13/07 Q1022 BLU

EXPIRED METARs :
  • 161155Z AUTO 19005KT 140V210 9999 BKN051 12/06 Q1022 BLU
  • 161125Z AUTO 20004KT 140V270 9999 OVC051 12/07 Q1022 BLU
  • 161055Z AUTO 21004KT 160V260 9999 OVC049 11/07 Q1022 BLU
  • 161025Z AUTO 21004KT 170V240 9999 OVC049 11/07 Q1023 BLU
  • 160955Z AUTO 21004KT 170V260 9999 OVC050 10/07 Q1023 BLU

TAF TAF EHVK
Valid from the 16 at 09:00 until the 16 at 21:00 UTC


160842Z 1609/1621 21004KT 9999 BKN048



MET'MAP, your aeronautical weather chart ! - Copyright ORBIFLY December 2007 - Disclaimer

ORBIFLY MET'MAP TEAM :

Programming & Development : Alexandra Zaïnal
Concept & original design : Baudouin d'Aumeries
Assistance for programming : Marc-Olivier Méhu
Technical & hardware support : Manuel Goepfert

Contact : metmap@orbifly.com




SOURCES & CREDITS :

   NOAA